sensor_id;sensor_type;location;lat;lon;timestamp;pressure;altitude;pressure_sealevel;temperature;humidity
31088;BME280;17745;55.914;37.554;2023-05-03T00:00:04;99321.50;;;12.61;32.75
31088;BME280;17745;55.914;37.554;2023-05-03T00:02:35;99315.37;;;12.60;32.83
31088;BME280;17745;55.914;37.554;2023-05-03T00:05:06;99315.13;;;12.62;32.89
31088;BME280;17745;55.914;37.554;2023-05-03T00:07:34;99314.31;;;12.61;32.95
31088;BME280;17745;55.914;37.554;2023-05-03T00:10:02;99308.75;;;12.63;32.95
31088;BME280;17745;55.914;37.554;2023-05-03T00:12:30;99308.47;;;12.64;33.01
31088;BME280;17745;55.914;37.554;2023-05-03T00:14:58;99303.97;;;12.65;33.05
31088;BME280;17745;55.914;37.554;2023-05-03T00:17:25;99308.50;;;12.69;33.00
31088;BME280;17745;55.914;37.554;2023-05-03T00:19:54;99301.06;;;12.71;32.99
31088;BME280;17745;55.914;37.554;2023-05-03T00:22:22;99298.13;;;12.73;33.03
31088;BME280;17745;55.914;37.554;2023-05-03T00:24:49;99288.84;;;12.76;32.98
31088;BME280;17745;55.914;37.554;2023-05-03T00:27:17;99293.91;;;12.77;32.99
31088;BME280;17745;55.914;37.554;2023-05-03T00:29:45;99283.28;;;12.77;33.02
31088;BME280;17745;55.914;37.554;2023-05-03T00:32:12;99283.00;;;12.73;33.06
31088;BME280;17745;55.914;37.554;2023-05-03T00:34:40;99281.41;;;12.72;33.10
31088;BME280;17745;55.914;37.554;2023-05-03T00:37:09;99275.03;;;12.68;33.20
31088;BME280;17745;55.914;37.554;2023-05-03T00:39:37;99284.56;;;12.64;33.25
31088;BME280;17745;55.914;37.554;2023-05-03T00:42:04;99276.34;;;12.61;33.29
31088;BME280;17745;55.914;37.554;2023-05-03T00:44:32;99277.13;;;12.56;33.35
31088;BME280;17745;55.914;37.554;2023-05-03T00:47:00;99282.16;;;12.52;33.39
31088;BME280;17745;55.914;37.554;2023-05-03T00:49:28;99269.41;;;12.49;33.43
31088;BME280;17745;55.914;37.554;2023-05-03T00:51:55;99260.69;;;12.49;33.51
31088;BME280;17745;55.914;37.554;2023-05-03T00:54:27;99265.19;;;12.48;33.49
31088;BME280;17745;55.914;37.554;2023-05-03T00:56:57;99266.25;;;12.47;33.54
31088;BME280;17745;55.914;37.554;2023-05-03T00:59:27;99260.16;;;12.47;33.56
31088;BME280;17745;55.914;37.554;2023-05-03T01:01:55;99252.97;;;12.47;33.56
31088;BME280;17745;55.914;37.554;2023-05-03T01:04:22;99252.44;;;12.50;33.54
31088;BME280;17745;55.914;37.554;2023-05-03T01:06:57;99244.22;;;12.52;33.53
31088;BME280;17745;55.914;37.554;2023-05-03T01:09:32;99234.38;;;12.52;33.59
31088;BME280;17745;55.914;37.554;2023-05-03T01:12:14;99241.84;;;12.55;33.64
31088;BME280;17745;55.914;37.554;2023-05-03T01:14:53;99228.56;;;12.55;33.65
31088;BME280;17745;55.914;37.554;2023-05-03T01:17:27;99235.47;;;12.56;33.59
31088;BME280;17745;55.914;37.554;2023-05-03T01:19:59;99232.25;;;12.54;33.63
31088;BME280;17745;55.914;37.554;2023-05-03T01:22:36;99249.00;;;12.55;33.64
31088;BME280;17745;55.914;37.554;2023-05-03T01:25:07;99250.06;;;12.59;33.61
31088;BME280;17745;55.914;37.554;2023-05-03T01:27:36;99236.78;;;12.59;33.61
31088;BME280;17745;55.914;37.554;2023-05-03T01:30:05;99242.62;;;12.61;33.61
31088;BME280;17745;55.914;37.554;2023-05-03T01:32:47;99240.22;;;12.65;33.62
31088;BME280;17745;55.914;37.554;2023-05-03T01:35:22;99231.19;;;12.71;33.64
31088;BME280;17745;55.914;37.554;2023-05-03T01:37:54;99222.69;;;12.74;33.57
31088;BME280;17745;55.914;37.554;2023-05-03T01:40:26;99225.91;;;12.76;33.55
31088;BME280;17745;55.914;37.554;2023-05-03T01:42:54;99228.81;;;12.80;33.55
31088;BME280;17745;55.914;37.554;2023-05-03T01:45:23;99228.03;;;12.79;33.55
31088;BME280;17745;55.914;37.554;2023-05-03T01:47:51;99217.94;;;12.81;33.52
31088;BME280;17745;55.914;37.554;2023-05-03T01:50:19;99226.69;;;12.82;33.51
31088;BME280;17745;55.914;37.554;2023-05-03T01:52:47;99213.69;;;12.80;33.52
31088;BME280;17745;55.914;37.554;2023-05-03T01:55:17;99214.97;;;12.83;33.51
31088;BME280;17745;55.914;37.554;2023-05-03T01:57:47;99206.75;;;12.84;33.48
31088;BME280;17745;55.914;37.554;2023-05-03T02:00:15;99208.34;;;12.85;33.48
31088;BME280;17745;55.914;37.554;2023-05-03T02:02:43;99213.12;;;12.89;33.47
31088;BME280;17745;55.914;37.554;2023-05-03T02:05:11;99205.69;;;12.91;33.46
31088;BME280;17745;55.914;37.554;2023-05-03T02:07:39;99201.72;;;12.88;33.46
31088;BME280;17745;55.914;37.554;2023-05-03T02:10:08;99201.44;;;12.90;33.46
31088;BME280;17745;55.914;37.554;2023-05-03T02:12:41;99211.00;;;12.91;33.46
31088;BME280;17745;55.914;37.554;2023-05-03T02:15:14;99203.56;;;12.87;33.52
31088;BME280;17745;55.914;37.554;2023-05-03T02:17:42;99209.66;;;12.83;33.57
31088;BME280;17745;55.914;37.554;2023-05-03T02:20:10;99204.66;;;12.81;33.60
31088;BME280;17745;55.914;37.554;2023-05-03T02:22:38;99189.25;;;12.78;33.65
31088;BME280;17745;55.914;37.554;2023-05-03T02:25:06;99194.56;;;12.78;33.66
31088;BME280;17745;55.914;37.554;2023-05-03T02:27:34;99196.16;;;12.79;33.71
31088;BME280;17745;55.914;37.554;2023-05-03T02:30:03;99192.66;;;12.84;33.65
31088;BME280;17745;55.914;37.554;2023-05-03T02:32:36;99196.66;;;12.86;33.65
31088;BME280;17745;55.914;37.554;2023-05-03T02:35:07;99188.16;;;12.84;33.70
31088;BME280;17745;55.914;37.554;2023-05-03T02:37:36;99194.81;;;12.87;33.70
31088;BME280;17745;55.914;37.554;2023-05-03T02:40:06;99196.38;;;12.93;33.64
31088;BME280;17745;55.914;37.554;2023-05-03T02:42:35;99195.06;;;12.96;33.61
31088;BME280;17745;55.914;37.554;2023-05-03T02:45:04;99188.94;;;12.95;33.61
31088;BME280;17745;55.914;37.554;2023-05-03T02:47:32;99192.66;;;12.94;33.65
31088;BME280;17745;55.914;37.554;2023-05-03T02:50:02;99182.28;;;12.93;33.67
31088;BME280;17745;55.914;37.554;2023-05-03T02:52:29;99198.25;;;12.93;33.70
31088;BME280;17745;55.914;37.554;2023-05-03T02:54:57;99194.50;;;12.94;33.75
31088;BME280;17745;55.914;37.554;2023-05-03T02:57:25;99195.59;;;12.98;33.73
31088;BME280;17745;55.914;37.554;2023-05-03T02:59:55;99190.81;;;13.00;33.75
31088;BME280;17745;55.914;37.554;2023-05-03T03:02:23;99179.63;;;13.03;33.77
31088;BME280;17745;55.914;37.554;2023-05-03T03:04:53;99190.53;;;13.07;33.74
31088;BME280;17745;55.914;37.554;2023-05-03T03:07:23;99204.06;;;13.10;33.76
31088;BME280;17745;55.914;37.554;2023-05-03T03:09:52;99201.13;;;13.17;33.75
31088;BME280;17745;55.914;37.554;2023-05-03T03:12:21;99208.81;;;13.29;33.63
31088;BME280;17745;55.914;37.554;2023-05-03T03:14:48;99203.47;;;13.34;33.58
31088;BME280;17745;55.914;37.554;2023-05-03T03:17:16;99201.88;;;13.33;33.56
31088;BME280;17745;55.914;37.554;2023-05-03T03:19:44;99208.28;;;13.27;33.63
31088;BME280;17745;55.914;37.554;2023-05-03T03:22:11;99206.69;;;13.26;33.66
31088;BME280;17745;55.914;37.554;2023-05-03T03:24:40;99204.28;;;13.29;33.63
31088;BME280;17745;55.914;37.554;2023-05-03T03:27:08;99204.00;;;13.31;33.64
31088;BME280;17745;55.914;37.554;2023-05-03T03:29:36;99202.16;;;13.32;33.62
31088;BME280;17745;55.914;37.554;2023-05-03T03:32:07;99204.81;;;13.32;33.63
31088;BME280;17745;55.914;37.554;2023-05-03T03:34:35;99211.44;;;13.34;33.62
31088;BME280;17745;55.914;37.554;2023-05-03T03:37:03;99207.72;;;13.35;33.56
31088;BME280;17745;55.914;37.554;2023-05-03T03:39:31;99202.41;;;13.30;33.65
31088;BME280;17745;55.914;37.554;2023-05-03T03:42:01;99215.19;;;13.28;33.73
31088;BME280;17745;55.914;37.554;2023-05-03T03:44:29;99217.59;;;13.29;33.74
31088;BME280;17745;55.914;37.554;2023-05-03T03:46:57;99221.56;;;13.32;33.74
31088;BME280;17745;55.914;37.554;2023-05-03T03:49:25;99214.09;;;13.39;33.77
31088;BME280;17745;55.914;37.554;2023-05-03T03:51:52;99216.47;;;13.41;33.76
31088;BME280;17745;55.914;37.554;2023-05-03T03:54:20;99227.41;;;13.44;33.75
31088;BME280;17745;55.914;37.554;2023-05-03T03:56:48;99235.41;;;13.44;33.89
31088;BME280;17745;55.914;37.554;2023-05-03T03:59:18;99231.37;;;13.42;34.08
31088;BME280;17745;55.914;37.554;2023-05-03T04:01:45;99228.22;;;13.35;34.26
31088;BME280;17745;55.914;37.554;2023-05-03T04:04:13;99241.81;;;13.18;34.82
31088;BME280;17745;55.914;37.554;2023-05-03T04:06:41;99239.44;;;12.90;35.50
31088;BME280;17745;55.914;37.554;2023-05-03T04:09:09;99250.84;;;12.65;36.34
31088;BME280;17745;55.914;37.554;2023-05-03T04:11:38;99249.53;;;12.47;36.94
31088;BME280;17745;55.914;37.554;2023-05-03T04:14:07;99234.91;;;12.39;37.47
31088;BME280;17745;55.914;37.554;2023-05-03T04:16:36;99239.41;;;12.43;37.81
31088;BME280;17745;55.914;37.554;2023-05-03T04:19:04;99247.41;;;12.49;37.90
31088;BME280;17745;55.914;37.554;2023-05-03T04:21:33;99250.31;;;12.47;38.22
31088;BME280;17745;55.914;37.554;2023-05-03T04:24:01;99245.81;;;12.53;38.22
31088;BME280;17745;55.914;37.554;2023-05-03T04:26:31;99228.81;;;12.59;38.35
31088;BME280;17745;55.914;37.554;2023-05-03T04:29:00;99245.53;;;12.65;38.27
31088;BME280;17745;55.914;37.554;2023-05-03T04:31:30;99243.16;;;12.73;38.32
31088;BME280;17745;55.914;37.554;2023-05-03T04:33:59;99244.47;;;12.71;38.44
31088;BME280;17745;55.914;37.554;2023-05-03T04:36:28;99253.25;;;12.66;38.59
31088;BME280;17745;55.914;37.554;2023-05-03T04:38:57;99249.50;;;12.62;38.64
31088;BME280;17745;55.914;37.554;2023-05-03T04:41:25;99243.44;;;12.56;38.79
31088;BME280;17745;55.914;37.554;2023-05-03T04:43:53;99244.47;;;12.50;38.99
31088;BME280;17745;55.914;37.554;2023-05-03T04:46:22;99252.44;;;12.45;39.21
31088;BME280;17745;55.914;37.554;2023-05-03T04:48:51;99255.34;;;12.43;39.43
31088;BME280;17745;55.914;37.554;2023-05-03T04:51:20;99267.28;;;12.41;39.84
31088;BME280;17745;55.914;37.554;2023-05-03T04:53:49;99261.97;;;12.36;40.19
31088;BME280;17745;55.914;37.554;2023-05-03T04:56:18;99261.16;;;12.35;40.33
31088;BME280;17745;55.914;37.554;2023-05-03T04:58:51;99259.88;;;12.48;40.36
31088;BME280;17745;55.914;37.554;2023-05-03T05:01:37;99262.00;;;12.67;40.43
31088;BME280;17745;55.914;37.554;2023-05-03T05:04:06;99262.28;;;12.70;40.47
31088;BME280;17745;55.914;37.554;2023-05-03T05:06:36;99264.94;;;12.81;40.39
31088;BME280;17745;55.914;37.554;2023-05-03T05:09:06;99265.22;;;13.00;40.29
31088;BME280;17745;55.914;37.554;2023-05-03T05:11:35;99258.00;;;13.16;40.20
31088;BME280;17745;55.914;37.554;2023-05-03T05:14:03;99252.41;;;13.33;40.10
31088;BME280;17745;55.914;37.554;2023-05-03T05:16:32;99258.00;;;13.47;39.99
31088;BME280;17745;55.914;37.554;2023-05-03T05:19:01;99256.88;;;13.58;39.98
31088;BME280;17745;55.914;37.554;2023-05-03T05:21:30;99260.28;;;13.75;39.87
31088;BME280;17745;55.914;37.554;2023-05-03T05:24:01;99259.22;;;13.76;40.01
31088;BME280;17745;55.914;37.554;2023-05-03T05:26:32;99267.44;;;13.84;40.04
31088;BME280;17745;55.914;37.554;2023-05-03T05:29:01;99262.63;;;13.92;40.03
31088;BME280;17745;55.914;37.554;2023-05-03T05:31:31;99257.97;;;14.18;39.78
31088;BME280;17745;55.914;37.554;2023-05-03T05:34:01;99261.78;;;14.47;39.52
31088;BME280;17745;55.914;37.554;2023-05-03T05:36:32;99262.50;;;14.57;39.34
31088;BME280;17745;55.914;37.554;2023-05-03T05:39:09;99261.47;;;14.53;39.31
31088;BME280;17745;55.914;37.554;2023-05-03T05:41:57;99263.16;;;14.44;39.50
31088;BME280;17745;55.914;37.554;2023-05-03T05:44:28;99267.50;;;14.29;39.57
31088;BME280;17745;55.914;37.554;2023-05-03T05:46:59;99260.56;;;14.28;39.62
31088;BME280;17745;55.914;37.554;2023-05-03T05:49:30;99265.91;;;14.28;39.58
31088;BME280;17745;55.914;37.554;2023-05-03T05:52:07;99267.75;;;14.33;39.61
31088;BME280;17745;55.914;37.554;2023-05-03T05:54:42;99265.19;;;14.57;39.52
31088;BME280;17745;55.914;37.554;2023-05-03T05:57:17;99263.97;;;14.79;39.30
31088;BME280;17745;55.914;37.554;2023-05-03T05:59:47;99259.69;;;14.83;39.29
31088;BME280;17745;55.914;37.554;2023-05-03T06:02:24;99265.69;;;14.99;39.24
31088;BME280;17745;55.914;37.554;2023-05-03T06:04:56;99264.56;;;15.35;38.91
31088;BME280;17745;55.914;37.554;2023-05-03T06:07:26;99264.50;;;15.65;38.54
31088;BME280;17745;55.914;37.554;2023-05-03T06:09:57;99270.00;;;15.73;38.45
31088;BME280;17745;55.914;37.554;2023-05-03T06:12:31;99277.75;;;15.75;38.26
31088;BME280;17745;55.914;37.554;2023-05-03T06:15:01;99270.16;;;15.63;38.30
31088;BME280;17745;55.914;37.554;2023-05-03T06:17:33;99267.97;;;15.65;38.38
31088;BME280;17745;55.914;37.554;2023-05-03T06:20:03;99270.09;;;15.68;38.33
31088;BME280;17745;55.914;37.554;2023-05-03T06:26:18;99283.28;;;15.79;38.12
31088;BME280;17745;55.914;37.554;2023-05-03T06:28:46;99277.66;;;15.61;38.36
31088;BME280;17745;55.914;37.554;2023-05-03T06:31:15;99284.78;;;15.66;38.30
31088;BME280;17745;55.914;37.554;2023-05-03T06:33:44;99290.13;;;15.66;38.30
31088;BME280;17745;55.914;37.554;2023-05-03T06:36:13;99291.94;;;15.70;38.33
31088;BME280;17745;55.914;37.554;2023-05-03T06:38:45;99282.75;;;15.82;38.29
31088;BME280;17745;55.914;37.554;2023-05-03T06:44:08;99291.63;;;16.21;37.89
31088;BME280;17745;55.914;37.554;2023-05-03T06:46:38;99300.50;;;16.16;38.00
31088;BME280;17745;55.914;37.554;2023-05-03T06:49:08;99289.97;;;16.25;38.03
31088;BME280;17745;55.914;37.554;2023-05-03T06:51:37;99287.66;;;16.37;38.07
31088;BME280;17745;55.914;37.554;2023-05-03T06:54:36;99288.16;;;16.58;37.77
31088;BME280;17745;55.914;37.554;2023-05-03T06:57:09;99285.75;;;16.76;37.28
31088;BME280;17745;55.914;37.554;2023-05-03T06:59:49;99285.97;;;16.80;37.40
31088;BME280;17745;55.914;37.554;2023-05-03T07:02:18;99294.78;;;16.80;37.48
31088;BME280;17745;55.914;37.554;2023-05-03T07:04:47;99298.63;;;16.74;37.35
31088;BME280;17745;55.914;37.554;2023-05-03T07:07:17;99299.56;;;16.64;37.54
31088;BME280;17745;55.914;37.554;2023-05-03T07:09:49;99302.47;;;16.68;37.63
31088;BME280;17745;55.914;37.554;2023-05-03T07:12:18;99298.75;;;16.83;37.55
31088;BME280;17745;55.914;37.554;2023-05-03T07:14:48;99308.78;;;17.10;37.32
31088;BME280;17745;55.914;37.554;2023-05-03T07:17:20;99302.28;;;17.44;37.01
31088;BME280;17745;55.914;37.554;2023-05-03T07:19:49;99303.91;;;17.74;36.57
31088;BME280;17745;55.914;37.554;2023-05-03T07:22:27;99305.50;;;17.61;36.70
31088;BME280;17745;55.914;37.554;2023-05-03T07:25:02;99292.28;;;17.64;36.81
31088;BME280;17745;55.914;37.554;2023-05-03T07:27:31;99302.81;;;17.61;36.61
31088;BME280;17745;55.914;37.554;2023-05-03T07:30:06;99295.56;;;17.61;36.73
31088;BME280;17745;55.914;37.554;2023-05-03T07:32:38;99305.38;;;17.94;36.57
31088;BME280;17745;55.914;37.554;2023-05-03T07:35:07;99306.84;;;18.28;36.22
31088;BME280;17745;55.914;37.554;2023-05-03T07:37:36;99307.37;;;18.76;35.75
31088;BME280;17745;55.914;37.554;2023-05-03T07:40:06;99301.50;;;19.10;35.41
31088;BME280;17745;55.914;37.554;2023-05-03T07:42:38;99301.56;;;19.28;35.16
31088;BME280;17745;55.914;37.554;2023-05-03T07:45:09;99316.84;;;19.50;34.69
31088;BME280;17745;55.914;37.554;2023-05-03T07:47:37;99317.66;;;19.51;34.61
31088;BME280;17745;55.914;37.554;2023-05-03T07:50:05;99314.47;;;19.49;34.47
31088;BME280;17745;55.914;37.554;2023-05-03T07:52:35;99321.69;;;19.39;34.42
31088;BME280;17745;55.914;37.554;2023-05-03T07:55:04;99320.78;;;19.44;34.45
31088;BME280;17745;55.914;37.554;2023-05-03T07:57:32;99321.97;;;19.61;34.25
31088;BME280;17745;55.914;37.554;2023-05-03T08:00:01;99326.31;;;19.48;33.99
31088;BME280;17745;55.914;37.554;2023-05-03T08:02:40;99322.69;;;19.21;34.08
31088;BME280;17745;55.914;37.554;2023-05-03T08:05:10;99328.19;;;18.93;34.37
31088;BME280;17745;55.914;37.554;2023-05-03T08:07:40;99333.66;;;18.87;34.50
31088;BME280;17745;55.914;37.554;2023-05-03T08:10:09;99344.09;;;18.89;34.50
31088;BME280;17745;55.914;37.554;2023-05-03T08:12:39;99340.94;;;18.87;34.45
31088;BME280;17745;55.914;37.554;2023-05-03T08:15:10;99331.72;;;18.79;34.27
31088;BME280;17745;55.914;37.554;2023-05-03T08:17:51;99343.63;;;18.50;34.44
31088;BME280;17745;55.914;37.554;2023-05-03T08:20:21;99337.72;;;18.25;34.76
31088;BME280;17745;55.914;37.554;2023-05-03T08:22:49;99352.53;;;18.09;34.99
31088;BME280;17745;55.914;37.554;2023-05-03T08:25:20;99346.97;;;18.19;34.96
31088;BME280;17745;55.914;37.554;2023-05-03T08:27:50;99351.34;;;18.15;35.03
31088;BME280;17745;55.914;37.554;2023-05-03T08:30:21;99339.03;;;18.14;35.20
31088;BME280;17745;55.914;37.554;2023-05-03T08:32:59;99357.69;;;18.19;35.23
31088;BME280;17745;55.914;37.554;2023-05-03T08:35:41;99353.37;;;18.32;35.20
31088;BME280;17745;55.914;37.554;2023-05-03T08:38:28;99346.03;;;18.38;35.21
31088;BME280;17745;55.914;37.554;2023-05-03T08:43:53;99343.72;;;18.45;35.24
31088;BME280;17745;55.914;37.554;2023-05-03T08:46:22;99341.19;;;18.26;35.68
31088;BME280;17745;55.914;37.554;2023-05-03T08:48:57;99339.91;;;18.09;35.93
31088;BME280;17745;55.914;37.554;2023-05-03T08:51:39;99323.56;;;18.11;36.14
31088;BME280;17745;55.914;37.554;2023-05-03T08:54:26;99331.78;;;18.28;36.05
31088;BME280;17745;55.914;37.554;2023-05-03T08:56:54;99329.09;;;18.28;36.10
31088;BME280;17745;55.914;37.554;2023-05-03T08:59:49;99338.22;;;18.27;36.27
31088;BME280;17745;55.914;37.554;2023-05-03T09:02:19;99331.50;;;18.53;36.21
31088;BME280;17745;55.914;37.554;2023-05-03T09:04:51;99326.34;;;18.79;36.01
31088;BME280;17745;55.914;37.554;2023-05-03T09:07:19;99329.94;;;18.97;35.75
31088;BME280;17745;55.914;37.554;2023-05-03T09:09:47;99339.41;;;19.18;35.66
31088;BME280;17745;55.914;37.554;2023-05-03T09:12:37;99346.97;;;19.38;35.32
31088;BME280;17745;55.914;37.554;2023-05-03T09:15:07;99350.78;;;19.46;35.18
31088;BME280;17745;55.914;37.554;2023-05-03T09:17:39;99346.97;;;19.38;35.27
31088;BME280;17745;55.914;37.554;2023-05-03T09:20:11;99346.56;;;19.22;35.41
31088;BME280;17745;55.914;37.554;2023-05-03T09:22:50;99347.75;;;18.93;35.63
31088;BME280;17745;55.914;37.554;2023-05-03T09:25:19;99350.63;;;18.74;35.97
31088;BME280;17745;55.914;37.554;2023-05-03T09:27:59;99351.94;;;18.99;35.87
31088;BME280;17745;55.914;37.554;2023-05-03T09:30:30;99355.50;;;19.40;35.52
31088;BME280;17745;55.914;37.554;2023-05-03T09:33:01;99352.56;;;19.51;35.33
31088;BME280;17745;55.914;37.554;2023-05-03T09:35:35;99361.47;;;19.37;35.52
31088;BME280;17745;55.914;37.554;2023-05-03T09:38:08;99362.25;;;19.29;35.50
31088;BME280;17745;55.914;37.554;2023-05-03T09:40:59;99362.53;;;19.05;35.70
31088;BME280;17745;55.914;37.554;2023-05-03T09:43:30;99365.12;;;18.96;35.73
31088;BME280;17745;55.914;37.554;2023-05-03T09:46:07;99346.22;;;18.78;35.84
31088;BME280;17745;55.914;37.554;2023-05-03T09:48:39;99361.78;;;18.53;36.27
31088;BME280;17745;55.914;37.554;2023-05-03T09:51:15;99368.41;;;18.56;36.36
31088;BME280;17745;55.914;37.554;2023-05-03T09:53:45;99369.88;;;18.76;36.29
31088;BME280;17745;55.914;37.554;2023-05-03T09:56:14;99359.44;;;18.75;36.38
31088;BME280;17745;55.914;37.554;2023-05-03T09:59:12;99371.75;;;18.76;36.47
31088;BME280;17745;55.914;37.554;2023-05-03T10:02:20;99374.25;;;18.72;36.70
31088;BME280;17745;55.914;37.554;2023-05-03T10:04:51;99367.03;;;18.58;36.83
31088;BME280;17745;55.914;37.554;2023-05-03T10:07:30;99375.22;;;18.39;37.08
31088;BME280;17745;55.914;37.554;2023-05-03T10:10:01;99371.13;;;18.42;37.24
31088;BME280;17745;55.914;37.554;2023-05-03T10:12:30;99384.06;;;18.40;37.09
31088;BME280;17745;55.914;37.554;2023-05-03T10:15:22;99385.94;;;18.39;37.17
31088;BME280;17745;55.914;37.554;2023-05-03T10:17:53;99388.19;;;18.46;37.05
31088;BME280;17745;55.914;37.554;2023-05-03T10:20:27;99382.38;;;18.30;37.11
31088;BME280;17745;55.914;37.554;2023-05-03T10:23:17;99376.16;;;18.21;37.30
31088;BME280;17745;55.914;37.554;2023-05-03T10:26:21;99393.59;;;18.32;37.46
31088;BME280;17745;55.914;37.554;2023-05-03T10:28:50;99387.91;;;18.48;37.37
31088;BME280;17745;55.914;37.554;2023-05-03T10:31:43;99390.78;;;18.51;37.21
31088;BME280;17745;55.914;37.554;2023-05-03T10:34:29;99386.19;;;18.66;37.23
31088;BME280;17745;55.914;37.554;2023-05-03T10:37:01;99390.66;;;18.93;36.75
31088;BME280;17745;55.914;37.554;2023-05-03T10:39:31;99384.31;;;19.03;36.56
31088;BME280;17745;55.914;37.554;2023-05-03T10:42:03;99383.59;;;18.97;36.57
31088;BME280;17745;55.914;37.554;2023-05-03T10:44:40;99378.56;;;18.96;36.53
31088;BME280;17745;55.914;37.554;2023-05-03T10:47:22;99384.41;;;18.98;36.44
31088;BME280;17745;55.914;37.554;2023-05-03T10:50:33;99385.03;;;19.18;36.10
31088;BME280;17745;55.914;37.554;2023-05-03T10:53:05;99378.44;;;19.24;35.58
31088;BME280;17745;55.914;37.554;2023-05-03T10:56:12;99378.09;;;19.17;35.70
31088;BME280;17745;55.914;37.554;2023-05-03T10:58:53;99394.06;;;18.99;35.90
31088;BME280;17745;55.914;37.554;2023-05-03T11:01:29;99387.38;;;18.96;36.00
31088;BME280;17745;55.914;37.554;2023-05-03T11:04:06;99394.50;;;19.15;36.00
31088;BME280;17745;55.914;37.554;2023-05-03T11:06:46;99398.06;;;19.56;35.37
31088;BME280;17745;55.914;37.554;2023-05-03T11:09:32;99405.22;;;20.59;34.51
31088;BME280;17745;55.914;37.554;2023-05-03T11:12:07;99398.37;;;21.67;32.74
31088;BME280;17745;55.914;37.554;2023-05-03T11:14:47;99390.03;;;21.90;32.31
31088;BME280;17745;55.914;37.554;2023-05-03T11:17:42;99403.53;;;21.81;32.19
31088;BME280;17745;55.914;37.554;2023-05-03T11:20:14;99387.34;;;21.90;31.50
31088;BME280;17745;55.914;37.554;2023-05-03T11:22:47;99400.22;;;20.84;32.76
31088;BME280;17745;55.914;37.554;2023-05-03T11:25:18;99403.12;;;20.38;33.45
31088;BME280;17745;55.914;37.554;2023-05-03T11:27:48;99384.50;;;19.93;33.78
31088;BME280;17745;55.914;37.554;2023-05-03T11:30:19;99389.81;;;19.84;34.14
31088;BME280;17745;55.914;37.554;2023-05-03T11:32:48;99393.31;;;20.25;33.83
31088;BME280;17745;55.914;37.554;2023-05-03T11:35:17;99385.66;;;20.94;33.16
31088;BME280;17745;55.914;37.554;2023-05-03T11:38:01;99380.31;;;21.68;32.46
31088;BME280;17745;55.914;37.554;2023-05-03T11:40:39;99350.84;;;23.08;30.61
31088;BME280;17745;55.914;37.554;2023-05-03T11:43:29;99367.25;;;23.03;30.22
31088;BME280;17745;55.914;37.554;2023-05-03T11:45:58;99346.41;;;21.97;31.44
31088;BME280;17745;55.914;37.554;2023-05-03T11:49:22;99362.63;;;21.32;32.06
31088;BME280;17745;55.914;37.554;2023-05-03T11:52:18;99388.47;;;20.62;32.76
31088;BME280;17745;55.914;37.554;2023-05-03T11:54:59;99380.00;;;20.11;33.46
31088;BME280;17745;55.914;37.554;2023-05-03T11:57:35;99395.59;;;19.91;33.78
31088;BME280;17745;55.914;37.554;2023-05-03T12:00:17;99395.19;;;19.84;33.96
31088;BME280;17745;55.914;37.554;2023-05-03T12:02:57;99396.63;;;19.81;34.00
31088;BME280;17745;55.914;37.554;2023-05-03T12:08:56;99390.50;;;19.58;34.12
31088;BME280;17745;55.914;37.554;2023-05-03T12:11:51;99389.06;;;19.52;34.24
31088;BME280;17745;55.914;37.554;2023-05-03T12:20:57;99398.28;;;19.14;34.83
31088;BME280;17745;55.914;37.554;2023-05-03T12:23:41;99388.16;;;19.11;35.16
31088;BME280;17745;55.914;37.554;2023-05-03T12:26:34;99387.28;;;19.47;34.77
31088;BME280;17745;55.914;37.554;2023-05-03T12:29:50;99382.97;;;19.69;34.60
31088;BME280;17745;55.914;37.554;2023-05-03T12:32:54;99387.91;;;19.76;34.16
31088;BME280;17745;55.914;37.554;2023-05-03T12:35:24;99382.34;;;20.04;34.02
31088;BME280;17745;55.914;37.554;2023-05-03T12:37:56;99385.19;;;20.83;32.88
31088;BME280;17745;55.914;37.554;2023-05-03T12:40:24;99357.41;;;21.35;32.28
31088;BME280;17745;55.914;37.554;2023-05-03T12:42:53;99376.16;;;21.62;31.72
31088;BME280;17745;55.914;37.554;2023-05-03T12:45:21;99379.91;;;21.39;31.94
31088;BME280;17745;55.914;37.554;2023-05-03T12:47:50;99387.06;;;21.18;32.13
31088;BME280;17745;55.914;37.554;2023-05-03T12:50:18;99388.81;;;20.96;31.72
31088;BME280;17745;55.914;37.554;2023-05-03T12:52:47;99383.84;;;20.36;32.28
31088;BME280;17745;55.914;37.554;2023-05-03T12:55:19;99390.72;;;19.70;33.03
31088;BME280;17745;55.914;37.554;2023-05-03T12:57:53;99382.81;;;19.42;33.51
31088;BME280;17745;55.914;37.554;2023-05-03T13:00:21;99363.06;;;19.38;33.63
31088;BME280;17745;55.914;37.554;2023-05-03T13:02:49;99384.63;;;19.24;33.77
31088;BME280;17745;55.914;37.554;2023-05-03T13:05:18;99391.00;;;19.37;33.93
31088;BME280;17745;55.914;37.554;2023-05-03T13:07:50;99383.72;;;21.21;31.97
31088;BME280;17745;55.914;37.554;2023-05-03T13:10:23;99387.09;;;22.64;30.03
31088;BME280;17745;55.914;37.554;2023-05-03T13:12:54;99396.69;;;23.50;28.82
31088;BME280;17745;55.914;37.554;2023-05-03T13:15:38;99386.25;;;24.23;28.18
31088;BME280;17745;55.914;37.554;2023-05-03T13:18:09;99370.88;;;24.93;26.99
31088;BME280;17745;55.914;37.554;2023-05-03T13:20:39;99387.47;;;23.76;28.13
31088;BME280;17745;55.914;37.554;2023-05-03T13:23:09;99386.25;;;22.21;29.61
31088;BME280;17745;55.914;37.554;2023-05-03T13:25:39;99388.00;;;21.31;30.67
31088;BME280;17745;55.914;37.554;2023-05-03T13:28:07;99395.44;;;20.72;31.50
31088;BME280;17745;55.914;37.554;2023-05-03T13:30:58;99395.06;;;20.38;31.96
31088;BME280;17745;55.914;37.554;2023-05-03T13:33:26;99401.84;;;20.18;32.34
31088;BME280;17745;55.914;37.554;2023-05-03T13:35:56;99388.72;;;21.49;31.37
31088;BME280;17745;55.914;37.554;2023-05-03T13:38:25;99398.06;;;23.94;28.77